sensor_id;sensor_type;location;lat;lon;timestamp;P1;durP1;ratioP1;P2;durP2;ratioP2
14247;SDS011;7208;49.826;6.004;2023-04-06T00:00:12;7.10;;;4.83;;
14247;SDS011;7208;49.826;6.004;2023-04-06T00:02:39;4.60;;;4.10;;
14247;SDS011;7208;49.826;6.004;2023-04-06T00:05:05;4.70;;;4.23;;
14247;SDS011;7208;49.826;6.004;2023-04-06T00:07:31;6.22;;;4.53;;
14247;SDS011;7208;49.826;6.004;2023-04-06T00:09:58;4.97;;;3.73;;
14247;SDS011;7208;49.826;6.004;2023-04-06T00:12:24;4.93;;;4.27;;
14247;SDS011;7208;49.826;6.004;2023-04-06T00:14:50;8.87;;;4.10;;
14247;SDS011;7208;49.826;6.004;2023-04-06T00:17:16;5.03;;;4.13;;
14247;SDS011;7208;49.826;6.004;2023-04-06T00:19:42;7.00;;;4.50;;
14247;SDS011;7208;49.826;6.004;2023-04-06T00:22:08;7.60;;;4.77;;
14247;SDS011;7208;49.826;6.004;2023-04-06T00:24:34;6.43;;;4.70;;
14247;SDS011;7208;49.826;6.004;2023-04-06T00:27:00;7.23;;;6.43;;
14247;SDS011;7208;49.826;6.004;2023-04-06T00:29:26;8.83;;;5.00;;
14247;SDS011;7208;49.826;6.004;2023-04-06T00:31:52;11.00;;;6.53;;
14247;SDS011;7208;49.826;6.004;2023-04-06T00:34:18;6.63;;;5.17;;
14247;SDS011;7208;49.826;6.004;2023-04-06T00:36:45;6.93;;;4.83;;
14247;SDS011;7208;49.826;6.004;2023-04-06T00:39:11;5.97;;;4.23;;
14247;SDS011;7208;49.826;6.004;2023-04-06T00:41:37;5.60;;;4.30;;
14247;SDS011;7208;49.826;6.004;2023-04-06T00:44:04;5.70;;;4.10;;
14247;SDS011;7208;49.826;6.004;2023-04-06T00:46:30;5.00;;;4.23;;
14247;SDS011;7208;49.826;6.004;2023-04-06T00:48:56;5.30;;;4.47;;
14247;SDS011;7208;49.826;6.004;2023-04-06T00:51:22;6.67;;;4.80;;
14247;SDS011;7208;49.826;6.004;2023-04-06T00:53:48;4.07;;;3.60;;
14247;SDS011;7208;49.826;6.004;2023-04-06T00:56:14;6.27;;;4.23;;
14247;SDS011;7208;49.826;6.004;2023-04-06T00:58:40;4.40;;;3.67;;
14247;SDS011;7208;49.826;6.004;2023-04-06T01:01:06;5.67;;;4.57;;
14247;SDS011;7208;49.826;6.004;2023-04-06T01:03:33;7.40;;;4.43;;
14247;SDS011;7208;49.826;6.004;2023-04-06T01:05:59;5.33;;;4.23;;
14247;SDS011;7208;49.826;6.004;2023-04-06T01:08:25;5.30;;;3.70;;
14247;SDS011;7208;49.826;6.004;2023-04-06T01:10:51;5.33;;;3.80;;
14247;SDS011;7208;49.826;6.004;2023-04-06T01:13:17;4.87;;;4.20;;
14247;SDS011;7208;49.826;6.004;2023-04-06T01:15:43;6.70;;;3.30;;
14247;SDS011;7208;49.826;6.004;2023-04-06T01:18:09;4.43;;;4.03;;
14247;SDS011;7208;49.826;6.004;2023-04-06T01:20:35;4.23;;;3.77;;
14247;SDS011;7208;49.826;6.004;2023-04-06T01:23:01;4.90;;;4.07;;
14247;SDS011;7208;49.826;6.004;2023-04-06T01:25:27;5.40;;;4.30;;
14247;SDS011;7208;49.826;6.004;2023-04-06T01:27:53;5.50;;;3.90;;
14247;SDS011;7208;49.826;6.004;2023-04-06T01:30:19;5.63;;;3.73;;
14247;SDS011;7208;49.826;6.004;2023-04-06T01:32:45;7.77;;;4.53;;
14247;SDS011;7208;49.826;6.004;2023-04-06T01:35:11;4.63;;;3.77;;
14247;SDS011;7208;49.826;6.004;2023-04-06T01:37:37;4.87;;;3.63;;
14247;SDS011;7208;49.826;6.004;2023-04-06T01:40:04;6.37;;;4.00;;
14247;SDS011;7208;49.826;6.004;2023-04-06T01:42:30;5.13;;;4.03;;
14247;SDS011;7208;49.826;6.004;2023-04-06T01:44:56;7.87;;;4.03;;
14247;SDS011;7208;49.826;6.004;2023-04-06T01:47:22;4.40;;;4.00;;
14247;SDS011;7208;49.826;6.004;2023-04-06T01:49:48;4.83;;;3.73;;
14247;SDS011;7208;49.826;6.004;2023-04-06T01:52:14;3.83;;;3.37;;
14247;SDS011;7208;49.826;6.004;2023-04-06T01:54:40;5.40;;;3.37;;
14247;SDS011;7208;49.826;6.004;2023-04-06T01:57:06;4.67;;;3.67;;
14247;SDS011;7208;49.826;6.004;2023-04-06T01:59:32;5.37;;;3.73;;
14247;SDS011;7208;49.826;6.004;2023-04-06T02:01:58;4.23;;;3.57;;
14247;SDS011;7208;49.826;6.004;2023-04-06T02:04:24;4.90;;;4.23;;
14247;SDS011;7208;49.826;6.004;2023-04-06T02:06:51;5.03;;;3.97;;
14247;SDS011;7208;49.826;6.004;2023-04-06T02:09:17;4.93;;;4.43;;
14247;SDS011;7208;49.826;6.004;2023-04-06T02:11:43;5.10;;;4.30;;
14247;SDS011;7208;49.826;6.004;2023-04-06T02:14:09;4.43;;;4.03;;
14247;SDS011;7208;49.826;6.004;2023-04-06T02:16:35;5.80;;;4.27;;
14247;SDS011;7208;49.826;6.004;2023-04-06T02:19:01;5.30;;;3.77;;
14247;SDS011;7208;49.826;6.004;2023-04-06T02:21:27;4.43;;;3.80;;
14247;SDS011;7208;49.826;6.004;2023-04-06T02:23:53;6.10;;;3.93;;
14247;SDS011;7208;49.826;6.004;2023-04-06T02:26:19;6.50;;;4.10;;
14247;SDS011;7208;49.826;6.004;2023-04-06T02:28:45;6.23;;;3.73;;
14247;SDS011;7208;49.826;6.004;2023-04-06T02:31:11;5.97;;;3.90;;
14247;SDS011;7208;49.826;6.004;2023-04-06T02:33:39;6.87;;;3.93;;
14247;SDS011;7208;49.826;6.004;2023-04-06T02:36:05;4.60;;;4.07;;
14247;SDS011;7208;49.826;6.004;2023-04-06T02:38:31;5.27;;;4.10;;
14247;SDS011;7208;49.826;6.004;2023-04-06T02:40:57;4.83;;;4.00;;
14247;SDS011;7208;49.826;6.004;2023-04-06T02:43:23;5.23;;;4.40;;
14247;SDS011;7208;49.826;6.004;2023-04-06T02:45:50;5.13;;;4.47;;
14247;SDS011;7208;49.826;6.004;2023-04-06T02:48:16;5.77;;;4.20;;
14247;SDS011;7208;49.826;6.004;2023-04-06T02:50:42;5.70;;;3.97;;
14247;SDS011;7208;49.826;6.004;2023-04-06T02:53:08;4.30;;;3.60;;
14247;SDS011;7208;49.826;6.004;2023-04-06T02:55:34;5.33;;;4.00;;
14247;SDS011;7208;49.826;6.004;2023-04-06T02:58:00;5.00;;;3.70;;
14247;SDS011;7208;49.826;6.004;2023-04-06T03:00:26;5.03;;;3.87;;
14247;SDS011;7208;49.826;6.004;2023-04-06T03:02:52;6.97;;;4.70;;
14247;SDS011;7208;49.826;6.004;2023-04-06T03:05:18;5.60;;;3.90;;
14247;SDS011;7208;49.826;6.004;2023-04-06T03:07:44;7.83;;;4.93;;
14247;SDS011;7208;49.826;6.004;2023-04-06T03:10:10;5.40;;;4.13;;
14247;SDS011;7208;49.826;6.004;2023-04-06T03:12:36;8.77;;;4.13;;
14247;SDS011;7208;49.826;6.004;2023-04-06T03:15:03;5.63;;;4.13;;
14247;SDS011;7208;49.826;6.004;2023-04-06T03:17:29;4.83;;;4.40;;
14247;SDS011;7208;49.826;6.004;2023-04-06T03:19:55;5.47;;;3.80;;
14247;SDS011;7208;49.826;6.004;2023-04-06T03:22:21;5.60;;;4.37;;
14247;SDS011;7208;49.826;6.004;2023-04-06T03:24:47;4.50;;;3.97;;
14247;SDS011;7208;49.826;6.004;2023-04-06T03:27:13;4.37;;;3.60;;
14247;SDS011;7208;49.826;6.004;2023-04-06T03:29:39;4.53;;;3.80;;
14247;SDS011;7208;49.826;6.004;2023-04-06T03:32:06;5.57;;;4.60;;
14247;SDS011;7208;49.826;6.004;2023-04-06T03:34:32;6.20;;;4.20;;
14247;SDS011;7208;49.826;6.004;2023-04-06T03:36:58;5.57;;;4.03;;
14247;SDS011;7208;49.826;6.004;2023-04-06T03:39:24;7.55;;;6.63;;
14247;SDS011;7208;49.826;6.004;2023-04-06T03:41:50;6.97;;;5.97;;
14247;SDS011;7208;49.826;6.004;2023-04-06T03:44:16;5.47;;;4.30;;
14247;SDS011;7208;49.826;6.004;2023-04-06T03:46:42;5.27;;;4.60;;
14247;SDS011;7208;49.826;6.004;2023-04-06T03:49:08;5.40;;;4.33;;
14247;SDS011;7208;49.826;6.004;2023-04-06T03:51:34;5.13;;;3.80;;
14247;SDS011;7208;49.826;6.004;2023-04-06T03:54:00;6.40;;;4.87;;
14247;SDS011;7208;49.826;6.004;2023-04-06T03:56:26;5.73;;;4.13;;
14247;SDS011;7208;49.826;6.004;2023-04-06T03:58:52;4.37;;;3.77;;
14247;SDS011;7208;49.826;6.004;2023-04-06T04:01:18;4.30;;;3.90;;
14247;SDS011;7208;49.826;6.004;2023-04-06T04:03:45;6.67;;;4.40;;
14247;SDS011;7208;49.826;6.004;2023-04-06T04:06:11;6.07;;;4.07;;
14247;SDS011;7208;49.826;6.004;2023-04-06T04:08:37;5.53;;;4.07;;
14247;SDS011;7208;49.826;6.004;2023-04-06T04:11:03;5.47;;;4.30;;
14247;SDS011;7208;49.826;6.004;2023-04-06T04:13:29;4.53;;;3.83;;
14247;SDS011;7208;49.826;6.004;2023-04-06T04:15:55;5.87;;;4.80;;
14247;SDS011;7208;49.826;6.004;2023-04-06T04:18:21;6.57;;;4.13;;
14247;SDS011;7208;49.826;6.004;2023-04-06T04:20:47;6.97;;;4.60;;
14247;SDS011;7208;49.826;6.004;2023-04-06T04:23:13;7.77;;;7.00;;
14247;SDS011;7208;49.826;6.004;2023-04-06T04:25:40;7.40;;;6.07;;
14247;SDS011;7208;49.826;6.004;2023-04-06T04:28:06;6.60;;;5.37;;
14247;SDS011;7208;49.826;6.004;2023-04-06T04:30:32;6.33;;;4.07;;
14247;SDS011;7208;49.826;6.004;2023-04-06T04:32:58;4.50;;;4.07;;
14247;SDS011;7208;49.826;6.004;2023-04-06T04:35:24;6.30;;;4.80;;
14247;SDS011;7208;49.826;6.004;2023-04-06T04:37:50;5.80;;;4.57;;
14247;SDS011;7208;49.826;6.004;2023-04-06T04:40:16;6.10;;;4.40;;
14247;SDS011;7208;49.826;6.004;2023-04-06T04:42:42;5.00;;;3.87;;
14247;SDS011;7208;49.826;6.004;2023-04-06T04:45:08;4.80;;;3.97;;
14247;SDS011;7208;49.826;6.004;2023-04-06T04:47:35;4.80;;;4.30;;
14247;SDS011;7208;49.826;6.004;2023-04-06T04:50:01;5.30;;;4.60;;
14247;SDS011;7208;49.826;6.004;2023-04-06T04:52:27;6.47;;;5.10;;
14247;SDS011;7208;49.826;6.004;2023-04-06T04:54:53;6.03;;;4.40;;
14247;SDS011;7208;49.826;6.004;2023-04-06T04:57:19;5.03;;;4.20;;
14247;SDS011;7208;49.826;6.004;2023-04-06T04:59:45;5.97;;;4.53;;
14247;SDS011;7208;49.826;6.004;2023-04-06T05:02:11;8.60;;;3.90;;
14247;SDS011;7208;49.826;6.004;2023-04-06T05:04:37;7.53;;;4.63;;
14247;SDS011;7208;49.826;6.004;2023-04-06T05:07:04;5.27;;;4.53;;
14247;SDS011;7208;49.826;6.004;2023-04-06T05:09:30;7.23;;;4.73;;
14247;SDS011;7208;49.826;6.004;2023-04-06T05:11:56;4.93;;;4.43;;
14247;SDS011;7208;49.826;6.004;2023-04-06T05:14:22;6.17;;;4.40;;
14247;SDS011;7208;49.826;6.004;2023-04-06T05:16:48;5.80;;;4.73;;
14247;SDS011;7208;49.826;6.004;2023-04-06T05:19:14;5.97;;;3.87;;
14247;SDS011;7208;49.826;6.004;2023-04-06T05:21:41;5.33;;;3.60;;
14247;SDS011;7208;49.826;6.004;2023-04-06T05:24:07;6.30;;;4.20;;
14247;SDS011;7208;49.826;6.004;2023-04-06T05:26:33;4.20;;;3.50;;
14247;SDS011;7208;49.826;6.004;2023-04-06T05:28:59;5.13;;;3.73;;
14247;SDS011;7208;49.826;6.004;2023-04-06T05:31:25;6.17;;;4.33;;
14247;SDS011;7208;49.826;6.004;2023-04-06T05:33:52;5.57;;;4.47;;
14247;SDS011;7208;49.826;6.004;2023-04-06T05:36:18;5.67;;;4.27;;
14247;SDS011;7208;49.826;6.004;2023-04-06T05:38:44;4.97;;;4.47;;
14247;SDS011;7208;49.826;6.004;2023-04-06T05:41:10;5.13;;;3.87;;
14247;SDS011;7208;49.826;6.004;2023-04-06T05:43:36;4.97;;;4.13;;
14247;SDS011;7208;49.826;6.004;2023-04-06T05:46:02;7.13;;;4.70;;
14247;SDS011;7208;49.826;6.004;2023-04-06T05:48:28;6.87;;;5.57;;
14247;SDS011;7208;49.826;6.004;2023-04-06T05:50:54;8.33;;;5.90;;
14247;SDS011;7208;49.826;6.004;2023-04-06T05:53:21;7.27;;;5.17;;
14247;SDS011;7208;49.826;6.004;2023-04-06T05:55:47;8.07;;;5.60;;
14247;SDS011;7208;49.826;6.004;2023-04-06T05:58:13;6.53;;;5.40;;
14247;SDS011;7208;49.826;6.004;2023-04-06T06:00:39;9.00;;;6.27;;
14247;SDS011;7208;49.826;6.004;2023-04-06T06:03:07;6.60;;;5.53;;
14247;SDS011;7208;49.826;6.004;2023-04-06T06:05:33;6.50;;;5.50;;
14247;SDS011;7208;49.826;6.004;2023-04-06T06:08:00;6.10;;;4.90;;
14247;SDS011;7208;49.826;6.004;2023-04-06T06:10:27;6.87;;;4.97;;
14247;SDS011;7208;49.826;6.004;2023-04-06T06:12:53;7.00;;;6.13;;
14247;SDS011;7208;49.826;6.004;2023-04-06T06:15:19;7.37;;;6.07;;
14247;SDS011;7208;49.826;6.004;2023-04-06T06:17:45;10.20;;;7.07;;
14247;SDS011;7208;49.826;6.004;2023-04-06T06:20:11;8.97;;;6.60;;
14247;SDS011;7208;49.826;6.004;2023-04-06T06:22:37;9.57;;;7.00;;
14247;SDS011;7208;49.826;6.004;2023-04-06T06:25:05;8.50;;;6.27;;
14247;SDS011;7208;49.826;6.004;2023-04-06T06:27:31;7.67;;;5.67;;
14247;SDS011;7208;49.826;6.004;2023-04-06T06:29:57;7.20;;;5.90;;
14247;SDS011;7208;49.826;6.004;2023-04-06T06:32:23;8.03;;;6.47;;
14247;SDS011;7208;49.826;6.004;2023-04-06T06:34:49;6.93;;;6.07;;
14247;SDS011;7208;49.826;6.004;2023-04-06T06:37:15;7.37;;;5.80;;
14247;SDS011;7208;49.826;6.004;2023-04-06T06:39:41;7.97;;;5.90;;
14247;SDS011;7208;49.826;6.004;2023-04-06T06:42:07;8.40;;;6.27;;
14247;SDS011;7208;49.826;6.004;2023-04-06T06:44:33;7.00;;;6.23;;
14247;SDS011;7208;49.826;6.004;2023-04-06T06:46:59;6.33;;;5.67;;
14247;SDS011;7208;49.826;6.004;2023-04-06T06:49:25;6.67;;;5.83;;
14247;SDS011;7208;49.826;6.004;2023-04-06T06:51:52;5.37;;;4.87;;
14247;SDS011;7208;49.826;6.004;2023-04-06T06:54:18;9.20;;;5.93;;
14247;SDS011;7208;49.826;6.004;2023-04-06T06:56:44;8.57;;;6.77;;
14247;SDS011;7208;49.826;6.004;2023-04-06T06:59:10;7.57;;;6.03;;
14247;SDS011;7208;49.826;6.004;2023-04-06T07:01:37;10.33;;;7.30;;
14247;SDS011;7208;49.826;6.004;2023-04-06T07:04:03;10.63;;;7.33;;
14247;SDS011;7208;49.826;6.004;2023-04-06T07:06:29;10.20;;;6.60;;
14247;SDS011;7208;49.826;6.004;2023-04-06T07:08:55;8.00;;;6.03;;
14247;SDS011;7208;49.826;6.004;2023-04-06T07:11:21;6.80;;;6.10;;
14247;SDS011;7208;49.826;6.004;2023-04-06T07:13:47;6.93;;;5.60;;
14247;SDS011;7208;49.826;6.004;2023-04-06T07:16:13;6.20;;;5.40;;
14247;SDS011;7208;49.826;6.004;2023-04-06T07:18:39;7.23;;;5.50;;
14247;SDS011;7208;49.826;6.004;2023-04-06T07:21:06;6.33;;;5.73;;
14247;SDS011;7208;49.826;6.004;2023-04-06T07:23:43;6.30;;;5.70;;
14247;SDS011;7208;49.826;6.004;2023-04-06T07:26:09;6.20;;;5.60;;
14247;SDS011;7208;49.826;6.004;2023-04-06T07:28:35;5.93;;;5.40;;
14247;SDS011;7208;49.826;6.004;2023-04-06T07:31:01;5.97;;;5.37;;
14247;SDS011;7208;49.826;6.004;2023-04-06T07:33:27;5.83;;;5.23;;
14247;SDS011;7208;49.826;6.004;2023-04-06T07:35:55;5.43;;;4.93;;
14247;SDS011;7208;49.826;6.004;2023-04-06T07:38:21;5.53;;;5.03;;
14247;SDS011;7208;49.826;6.004;2023-04-06T07:40:47;5.50;;;5.00;;
14247;SDS011;7208;49.826;6.004;2023-04-06T07:43:13;6.47;;;4.93;;
14247;SDS011;7208;49.826;6.004;2023-04-06T07:45:40;5.27;;;4.77;;
14247;SDS011;7208;49.826;6.004;2023-04-06T07:48:06;5.30;;;4.80;;
14247;SDS011;7208;49.826;6.004;2023-04-06T07:50:32;5.53;;;4.77;;
14247;SDS011;7208;49.826;6.004;2023-04-06T07:52:58;4.90;;;4.47;;
14247;SDS011;7208;49.826;6.004;2023-04-06T07:55:25;6.47;;;5.33;;
14247;SDS011;7208;49.826;6.004;2023-04-06T07:57:51;6.23;;;5.43;;
14247;SDS011;7208;49.826;6.004;2023-04-06T08:00:17;5.87;;;4.53;;
14247;SDS011;7208;49.826;6.004;2023-04-06T08:02:43;4.80;;;4.40;;
14247;SDS011;7208;49.826;6.004;2023-04-06T08:05:09;5.00;;;4.50;;
14247;SDS011;7208;49.826;6.004;2023-04-06T08:07:36;6.03;;;4.70;;
14247;SDS011;7208;49.826;6.004;2023-04-06T08:10:02;7.37;;;4.40;;
14247;SDS011;7208;49.826;6.004;2023-04-06T08:12:28;5.83;;;5.00;;
14247;SDS011;7208;49.826;6.004;2023-04-06T08:14:54;4.60;;;4.00;;
14247;SDS011;7208;49.826;6.004;2023-04-06T08:17:21;5.83;;;4.80;;
14247;SDS011;7208;49.826;6.004;2023-04-06T08:19:47;4.60;;;4.07;;
14247;SDS011;7208;49.826;6.004;2023-04-06T08:22:14;5.07;;;4.27;;
14247;SDS011;7208;49.826;6.004;2023-04-06T08:24:40;5.20;;;4.70;;
14247;SDS011;7208;49.826;6.004;2023-04-06T08:27:06;4.73;;;4.20;;
14247;SDS011;7208;49.826;6.004;2023-04-06T08:29:32;5.10;;;4.60;;
14247;SDS011;7208;49.826;6.004;2023-04-06T08:31:58;5.30;;;4.47;;
14247;SDS011;7208;49.826;6.004;2023-04-06T08:34:24;5.80;;;4.10;;
14247;SDS011;7208;49.826;6.004;2023-04-06T08:36:50;6.70;;;4.27;;
14247;SDS011;7208;49.826;6.004;2023-04-06T08:39:17;4.87;;;4.37;;
14247;SDS011;7208;49.826;6.004;2023-04-06T08:41:50;4.90;;;4.37;;
14247;SDS011;7208;49.826;6.004;2023-04-06T08:44:17;4.90;;;4.13;;
14247;SDS011;7208;49.826;6.004;2023-04-06T08:46:43;6.73;;;4.57;;
14247;SDS011;7208;49.826;6.004;2023-04-06T08:49:10;4.80;;;4.40;;
14247;SDS011;7208;49.826;6.004;2023-04-06T08:51:36;5.23;;;4.60;;
14247;SDS011;7208;49.826;6.004;2023-04-06T08:54:03;5.77;;;4.80;;
14247;SDS011;7208;49.826;6.004;2023-04-06T08:56:29;4.70;;;4.30;;
14247;SDS011;7208;49.826;6.004;2023-04-06T08:58:55;5.67;;;5.07;;
14247;SDS011;7208;49.826;6.004;2023-04-06T09:01:26;4.93;;;4.43;;
14247;SDS011;7208;49.826;6.004;2023-04-06T09:03:56;4.77;;;4.37;;
14247;SDS011;7208;49.826;6.004;2023-04-06T09:06:22;5.80;;;4.20;;
14247;SDS011;7208;49.826;6.004;2023-04-06T09:08:49;5.63;;;4.50;;
14247;SDS011;7208;49.826;6.004;2023-04-06T09:11:15;5.10;;;4.60;;
14247;SDS011;7208;49.826;6.004;2023-04-06T09:13:47;4.87;;;4.33;;
14247;SDS011;7208;49.826;6.004;2023-04-06T09:16:14;4.93;;;4.47;;
14247;SDS011;7208;49.826;6.004;2023-04-06T09:18:40;4.70;;;4.30;;
14247;SDS011;7208;49.826;6.004;2023-04-06T09:21:07;4.77;;;3.87;;
14247;SDS011;7208;49.826;6.004;2023-04-06T09:23:33;5.83;;;4.40;;
14247;SDS011;7208;49.826;6.004;2023-04-06T09:26:09;5.60;;;4.63;;
14247;SDS011;7208;49.826;6.004;2023-04-06T09:28:46;4.90;;;4.40;;
14247;SDS011;7208;49.826;6.004;2023-04-06T09:31:14;5.97;;;4.43;;
14247;SDS011;7208;49.826;6.004;2023-04-06T09:33:41;4.97;;;4.50;;
14247;SDS011;7208;49.826;6.004;2023-04-06T09:36:07;7.50;;;4.67;;
14247;SDS011;7208;49.826;6.004;2023-04-06T09:38:36;4.77;;;4.00;;
14247;SDS011;7208;49.826;6.004;2023-04-06T09:41:03;6.13;;;3.90;;
14247;SDS011;7208;49.826;6.004;2023-04-06T09:43:29;4.50;;;4.10;;
14247;SDS011;7208;49.826;6.004;2023-04-06T09:45:55;4.53;;;4.13;;
14247;SDS011;7208;49.826;6.004;2023-04-06T09:48:23;5.10;;;3.70;;
14247;SDS011;7208;49.826;6.004;2023-04-06T09:50:51;6.77;;;4.10;;
14247;SDS011;7208;49.826;6.004;2023-04-06T09:53:20;4.23;;;3.83;;
14247;SDS011;7208;49.826;6.004;2023-04-06T09:55:46;5.10;;;4.50;;
14247;SDS011;7208;49.826;6.004;2023-04-06T09:58:18;4.43;;;4.00;;
14247;SDS011;7208;49.826;6.004;2023-04-06T10:00:53;4.30;;;3.90;;
14247;SDS011;7208;49.826;6.004;2023-04-06T10:05:55;5.03;;;4.47;;
14247;SDS011;7208;49.826;6.004;2023-04-06T10:08:27;5.67;;;4.77;;
14247;SDS011;7208;49.826;6.004;2023-04-06T10:10:54;5.20;;;4.33;;
14247;SDS011;7208;49.826;6.004;2023-04-06T10:13:20;4.23;;;3.53;;
14247;SDS011;7208;49.826;6.004;2023-04-06T10:15:47;4.67;;;3.70;;
14247;SDS011;7208;49.826;6.004;2023-04-06T10:18:13;5.27;;;4.30;;
14247;SDS011;7208;49.826;6.004;2023-04-06T10:23:32;4.23;;;3.77;;
14247;SDS011;7208;49.826;6.004;2023-04-06T10:25:59;4.90;;;4.40;;
14247;SDS011;7208;49.826;6.004;2023-04-06T10:28:31;4.63;;;3.77;;
14247;SDS011;7208;49.826;6.004;2023-04-06T10:30:58;5.03;;;3.77;;
14247;SDS011;7208;49.826;6.004;2023-04-06T10:33:24;4.63;;;4.00;;
14247;SDS011;7208;49.826;6.004;2023-04-06T10:35:50;4.73;;;4.00;;
14247;SDS011;7208;49.826;6.004;2023-04-06T10:38:16;5.33;;;4.07;;
14247;SDS011;7208;49.826;6.004;2023-04-06T10:40:46;4.83;;;4.43;;
14247;SDS011;7208;49.826;6.004;2023-04-06T10:43:13;4.40;;;4.00;;
14247;SDS011;7208;49.826;6.004;2023-04-06T10:45:40;3.93;;;3.53;;
14247;SDS011;7208;49.826;6.004;2023-04-06T10:48:14;5.03;;;3.83;;
14247;SDS011;7208;49.826;6.004;2023-04-06T10:50:48;3.90;;;3.50;;
14247;SDS011;7208;49.826;6.004;2023-04-06T10:53:25;4.90;;;4.00;;
14247;SDS011;7208;49.826;6.004;2023-04-06T10:55:51;3.83;;;3.47;;
14247;SDS011;7208;49.826;6.004;2023-04-06T10:58:18;4.80;;;3.70;;
14247;SDS011;7208;49.826;6.004;2023-04-06T11:00:45;4.07;;;3.67;;
14247;SDS011;7208;49.826;6.004;2023-04-06T11:03:11;4.73;;;3.83;;
14247;SDS011;7208;49.826;6.004;2023-04-06T11:05:37;3.13;;;2.83;;
14247;SDS011;7208;49.826;6.004;2023-04-06T11:08:03;3.80;;;3.23;;
14247;SDS011;7208;49.826;6.004;2023-04-06T11:10:29;3.20;;;2.90;;
14247;SDS011;7208;49.826;6.004;2023-04-06T11:12:55;4.13;;;3.17;;
14247;SDS011;7208;49.826;6.004;2023-04-06T11:15:21;3.37;;;2.90;;
14247;SDS011;7208;49.826;6.004;2023-04-06T11:17:48;3.10;;;2.63;;
14247;SDS011;7208;49.826;6.004;2023-04-06T11:20:14;3.30;;;3.00;;
14247;SDS011;7208;49.826;6.004;2023-04-06T11:22:50;2.63;;;2.43;;
14247;SDS011;7208;49.826;6.004;2023-04-06T11:25:16;3.53;;;2.83;;
14247;SDS011;7208;49.826;6.004;2023-04-06T11:27:42;4.20;;;2.90;;
14247;SDS011;7208;49.826;6.004;2023-04-06T11:30:09;4.47;;;2.90;;
14247;SDS011;7208;49.826;6.004;2023-04-06T11:32:45;2.90;;;2.53;;
14247;SDS011;7208;49.826;6.004;2023-04-06T11:35:13;2.97;;;2.60;;
14247;SDS011;7208;49.826;6.004;2023-04-06T11:37:44;2.80;;;2.60;;
14247;SDS011;7208;49.826;6.004;2023-04-06T11:40:11;3.23;;;2.60;;
14247;SDS011;7208;49.826;6.004;2023-04-06T11:42:37;3.37;;;2.90;;
14247;SDS011;7208;49.826;6.004;2023-04-06T11:45:03;2.93;;;2.70;;
14247;SDS011;7208;49.826;6.004;2023-04-06T11:47:33;2.50;;;2.30;;
14247;SDS011;7208;49.826;6.004;2023-04-06T11:50:09;3.50;;;2.83;;
14247;SDS011;7208;49.826;6.004;2023-04-06T11:52:35;2.73;;;2.47;;
14247;SDS011;7208;49.826;6.004;2023-04-06T11:55:19;3.07;;;2.77;;
14247;SDS011;7208;49.826;6.004;2023-04-06T11:57:45;3.27;;;2.50;;
14247;SDS011;7208;49.826;6.004;2023-04-06T12:00:11;2.90;;;2.70;;
14247;SDS011;7208;49.826;6.004;2023-04-06T12:02:38;2.97;;;2.67;;
14247;SDS011;7208;49.826;6.004;2023-04-06T12:05:05;2.93;;;2.73;;
14247;SDS011;7208;49.826;6.004;2023-04-06T12:07:32;2.67;;;2.43;;
14247;SDS011;7208;49.826;6.004;2023-04-06T12:09:58;3.43;;;2.80;;
14247;SDS011;7208;49.826;6.004;2023-04-06T12:12:24;3.10;;;2.57;;
14247;SDS011;7208;49.826;6.004;2023-04-06T12:14:50;3.07;;;2.77;;
14247;SDS011;7208;49.826;6.004;2023-04-06T12:17:18;2.30;;;2.10;;
14247;SDS011;7208;49.826;6.004;2023-04-06T12:19:44;2.83;;;2.60;;
14247;SDS011;7208;49.826;6.004;2023-04-06T12:22:10;3.73;;;2.70;;
14247;SDS011;7208;49.826;6.004;2023-04-06T12:24:36;2.70;;;2.50;;
14247;SDS011;7208;49.826;6.004;2023-04-06T12:27:02;2.40;;;2.20;;
14247;SDS011;7208;49.826;6.004;2023-04-06T12:29:28;2.53;;;2.33;;
14247;SDS011;7208;49.826;6.004;2023-04-06T12:31:54;2.60;;;2.40;;
14247;SDS011;7208;49.826;6.004;2023-04-06T12:34:21;2.83;;;2.63;;
14247;SDS011;7208;49.826;6.004;2023-04-06T12:36:47;2.57;;;2.17;;
14247;SDS011;7208;49.826;6.004;2023-04-06T12:39:13;2.70;;;2.50;;
14247;SDS011;7208;49.826;6.004;2023-04-06T12:41:39;3.03;;;2.73;;
14247;SDS011;7208;49.826;6.004;2023-04-06T12:44:06;2.77;;;2.57;;
14247;SDS011;7208;49.826;6.004;2023-04-06T12:46:32;2.60;;;2.40;;
14247;SDS011;7208;49.826;6.004;2023-04-06T12:48:58;3.00;;;2.77;;
14247;SDS011;7208;49.826;6.004;2023-04-06T12:51:27;2.60;;;2.40;;
14247;SDS011;7208;49.826;6.004;2023-04-06T12:53:54;2.70;;;2.50;;
14247;SDS011;7208;49.826;6.004;2023-04-06T12:56:20;3.40;;;2.13;;
14247;SDS011;7208;49.826;6.004;2023-04-06T12:58:47;3.13;;;2.83;;
14247;SDS011;7208;49.826;6.004;2023-04-06T13:01:13;3.13;;;2.90;;
14247;SDS011;7208;49.826;6.004;2023-04-06T13:03:40;2.40;;;2.13;;
14247;SDS011;7208;49.826;6.004;2023-04-06T13:06:06;2.93;;;2.73;;
14247;SDS011;7208;49.826;6.004;2023-04-06T13:08:33;2.33;;;2.13;;
14247;SDS011;7208;49.826;6.004;2023-04-06T13:11:01;1.70;;;1.60;;
14247;SDS011;7208;49.826;6.004;2023-04-06T13:13:27;2.00;;;1.80;;
14247;SDS011;7208;49.826;6.004;2023-04-06T13:15:54;2.10;;;1.90;;
14247;SDS011;7208;49.826;6.004;2023-04-06T13:18:21;1.97;;;1.83;;
14247;SDS011;7208;49.826;6.004;2023-04-06T13:20:48;1.83;;;1.73;;
14247;SDS011;7208;49.826;6.004;2023-04-06T13:23:14;1.90;;;1.57;;
14247;SDS011;7208;49.826;6.004;2023-04-06T13:25:40;1.93;;;1.50;;
14247;SDS011;7208;49.826;6.004;2023-04-06T13:28:07;2.30;;;1.80;;
14247;SDS011;7208;49.826;6.004;2023-04-06T13:30:33;2.63;;;1.63;;
14247;SDS011;7208;49.826;6.004;2023-04-06T13:32:59;1.70;;;1.60;;
14247;SDS011;7208;49.826;6.004;2023-04-06T13:35:25;1.40;;;1.30;;
14247;SDS011;7208;49.826;6.004;2023-04-06T13:37:51;1.40;;;1.30;;
14247;SDS011;7208;49.826;6.004;2023-04-06T13:40:17;2.13;;;1.50;;
14247;SDS011;7208;49.826;6.004;2023-04-06T13:42:44;1.40;;;1.30;;
14247;SDS011;7208;49.826;6.004;2023-04-06T13:45:11;1.97;;;1.63;;
14247;SDS011;7208;49.826;6.004;2023-04-06T13:47:37;1.60;;;1.50;;
14247;SDS011;7208;49.826;6.004;2023-04-06T13:50:03;1.60;;;1.50;;
14247;SDS011;7208;49.826;6.004;2023-04-06T13:52:29;1.60;;;1.50;;
14247;SDS011;7208;49.826;6.004;2023-04-06T13:54:55;2.13;;;1.80;;
14247;SDS011;7208;49.826;6.004;2023-04-06T13:57:21;1.67;;;1.50;;
14247;SDS011;7208;49.826;6.004;2023-04-06T13:59:47;3.73;;;1.97;;
14247;SDS011;7208;49.826;6.004;2023-04-06T14:02:15;2.00;;;1.80;;
14247;SDS011;7208;49.826;6.004;2023-04-06T14:04:41;2.37;;;2.03;;
14247;SDS011;7208;49.826;6.004;2023-04-06T14:07:07;2.57;;;2.37;;
14247;SDS011;7208;49.826;6.004;2023-04-06T14:09:33;2.33;;;2.13;;
14247;SDS011;7208;49.826;6.004;2023-04-06T14:11:59;2.43;;;2.23;;
14247;SDS011;7208;49.826;6.004;2023-04-06T14:14:25;3.93;;;2.53;;
14247;SDS011;7208;49.826;6.004;2023-04-06T14:16:51;3.23;;;2.23;;
14247;SDS011;7208;49.826;6.004;2023-04-06T14:19:19;3.40;;;2.60;;
14247;SDS011;7208;49.826;6.004;2023-04-06T14:21:46;2.93;;;2.50;;
14247;SDS011;7208;49.826;6.004;2023-04-06T14:24:12;2.43;;;2.23;;
14247;SDS011;7208;49.826;6.004;2023-04-06T14:26:39;4.10;;;2.70;;
14247;SDS011;7208;49.826;6.004;2023-04-06T14:29:06;3.10;;;2.77;;
14247;SDS011;7208;49.826;6.004;2023-04-06T14:31:32;3.00;;;2.17;;
14247;SDS011;7208;49.826;6.004;2023-04-06T14:34:00;3.20;;;2.47;;
14247;SDS011;7208;49.826;6.004;2023-04-06T14:36:27;2.63;;;2.43;;
14247;SDS011;7208;49.826;6.004;2023-04-06T14:38:54;2.37;;;2.17;;
14247;SDS011;7208;49.826;6.004;2023-04-06T14:41:22;2.77;;;2.50;;
14247;SDS011;7208;49.826;6.004;2023-04-06T14:43:48;3.80;;;3.17;;
14247;SDS011;7208;49.826;6.004;2023-04-06T14:46:14;3.73;;;2.83;;
14247;SDS011;7208;49.826;6.004;2023-04-06T14:48:40;2.87;;;2.67;;
14247;SDS011;7208;49.826;6.004;2023-04-06T14:51:06;2.60;;;2.40;;
14247;SDS011;7208;49.826;6.004;2023-04-06T14:53:32;3.07;;;2.77;;
14247;SDS011;7208;49.826;6.004;2023-04-06T14:55:58;3.67;;;2.67;;
14247;SDS011;7208;49.826;6.004;2023-04-06T14:58:25;2.90;;;2.60;;
14247;SDS011;7208;49.826;6.004;2023-04-06T15:00:58;3.07;;;2.70;;